Time;durP1;ratioP1;P1;durP2;ratioP2;P2;SDS_P1;SDS_P2;PMS_P1;PMS_P2;Temp;Humidity;BMP_temperature;BMP_pressure;BME280_temperature;BME280_humidity;BME280_pressure;Samples;Min_cycle;Max_cycle;Signal;HPM_P1;HPM_P2
2023/02/03 00:00:52;;;;;;;10.45;5.22;;;;;;;-5.94;52.85;100054.59;4769566;30;20421;-85
2023/02/03 00:03:18;;;;;;;11.07;5.75;;;;;;;-6.03;53.02;100052.03;4771006;30;20072;-86
2023/02/03 00:05:45;;;;;;;10.30;5.63;;;;;;;-5.99;53.01;100054.63;4785471;30;20465;-86
2023/02/03 00:08:12;;;;;;;13.63;5.75;;;;;;;-6.02;52.93;100048.53;4769097;30;20078;-85
2023/02/03 00:10:39;;;;;;;14.32;5.63;;;;;;;-6.18;52.75;100058.13;4784069;30;20059;-86
2023/02/03 00:13:05;;;;;;;9.27;4.47;;;;;;;-6.34;52.61;100059.88;4783793;30;20124;-85
2023/02/03 00:15:31;;;;;;;9.35;5.13;;;;;;;-6.33;52.79;100048.59;4769431;30;20055;-86
2023/02/03 00:17:57;;;;;;;11.95;5.38;;;;;;;-6.28;52.85;100057.28;4784233;30;20051;-85
2023/02/03 00:20:24;;;;;;;16.35;5.47;;;;;;;-6.31;52.72;100052.06;4769045;30;20112;-85
2023/02/03 00:22:51;;;;;;;10.98;4.95;;;;;;;-6.45;52.53;100049.47;4769207;30;20048;-85
2023/02/03 00:25:17;;;;;;;12.68;5.00;;;;;;;-6.44;52.66;100042.53;4784052;30;20051;-85
2023/02/03 00:27:44;;;;;;;11.43;5.13;;;;;;;-6.41;52.34;100046.00;4784050;30;20058;-85
2023/02/03 00:30:11;;;;;;;10.77;3.63;;;;;;;-6.42;52.38;100048.59;4768899;30;20047;-85
2023/02/03 00:32:37;;;;;;;10.77;5.05;;;;;;;-6.33;52.61;100061.59;4783899;30;20051;-84
2023/02/03 00:35:04;;;;;;;10.20;4.30;;;;;;;-6.24;52.36;100058.09;4783867;30;20101;-84
2023/02/03 00:37:30;;;;;;;14.02;5.43;;;;;;;-6.32;51.88;100058.13;4768925;30;20051;-83
2023/02/03 00:39:56;;;;;;;10.63;5.13;;;;;;;-6.25;52.08;100075.47;4774723;30;20585;-84
2023/02/03 00:42:22;;;;;;;10.32;5.38;;;;;;;-6.28;51.89;100066.78;4775740;30;20142;-84
2023/02/03 00:44:48;;;;;;;10.90;5.85;;;;;;;-6.26;52.05;100078.94;4775316;30;20105;-84
2023/02/03 00:47:14;;;;;;;11.13;5.93;;;;;;;-6.32;51.95;100071.13;4790020;30;20074;-85
2023/02/03 00:49:39;;;;;;;10.55;5.72;;;;;;;-6.33;52.33;100061.59;4775038;30;20052;-85
2023/02/03 00:52:05;;;;;;;9.63;5.72;;;;;;;-6.29;52.03;100071.13;4789847;30;20566;-84
2023/02/03 00:54:31;;;;;;;13.07;6.05;;;;;;;-6.35;52.19;100060.75;4774819;30;20413;-85
2023/02/03 00:56:56;;;;;;;11.85;5.75;;;;;;;-6.32;52.39;100065.91;4789725;30;20515;-84
2023/02/03 00:59:22;;;;;;;11.60;6.18;;;;;;;-6.28;52.22;100061.59;4774962;30;20483;-83
2023/02/03 01:01:49;;;;;;;14.10;6.18;;;;;;;-6.31;52.16;100051.19;4774614;30;20047;-83
2023/02/03 01:04:15;;;;;;;12.32;5.60;;;;;;;-6.25;52.24;100054.66;4790832;30;20048;-83
2023/02/03 01:06:41;;;;;;;10.85;5.40;;;;;;;-6.22;52.58;100052.03;4777343;30;20047;-83
2023/02/03 01:09:07;;;;;;;13.70;6.00;;;;;;;-6.22;52.64;100052.03;4775887;30;20412;-82
2023/02/03 01:11:33;;;;;;;11.82;5.70;;;;;;;-6.12;52.14;100048.56;4775692;30;20458;-83
2023/02/03 01:14:00;;;;;;;11.63;5.55;;;;;;;-6.04;52.27;100045.09;4789854;30;20059;-82
2023/02/03 01:16:29;;;;;;;10.23;5.13;;;;;;;-5.99;52.08;100038.13;4776187;30;20118;-84
2023/02/03 01:18:56;;;;;;;12.38;5.88;;;;;;;-5.90;52.17;100043.31;4760221;30;20421;-82
2023/02/03 01:21:24;;;;;;;11.95;5.60;;;;;;;-5.86;51.86;100040.69;4790377;30;20058;-83
2023/02/03 01:23:51;;;;;;;10.48;5.07;;;;;;;-5.82;52.00;100041.53;4778107;30;20048;-82
2023/02/03 01:26:20;;;;;;;12.75;5.78;;;;;;;-5.79;51.80;100035.44;4783226;30;20064;-86
2023/02/03 01:28:58;;;;;;;12.35;5.82;;;;;;;-5.78;51.79;100038.06;4805915;30;20093;-83
2023/02/03 01:31:30;;;;;;;12.75;5.47;;;;;;;-5.75;51.57;100038.06;4790681;30;20051;-83
2023/02/03 01:33:56;;;;;;;9.25;4.68;;;;;;;-5.74;51.53;100038.91;4774341;30;20054;-84
2023/02/03 01:36:25;;;;;;;23.23;5.88;;;;;;;-5.74;51.55;100039.78;4789300;30;20139;-83
2023/02/03 01:38:51;;;;;;;11.65;5.22;;;;;;;-5.72;51.41;100047.56;4774325;30;20593;-83
2023/02/03 01:41:20;;;;;;;13.25;5.15;;;;;;;-5.79;51.46;100040.66;4775865;30;20047;-83
2023/02/03 01:43:49;;;;;;;12.40;5.20;;;;;;;-5.84;51.32;100038.06;4789536;30;20056;-84
2023/02/03 01:46:34;;;;;;;11.65;5.82;;;;;;;-5.89;51.14;100045.03;4789053;30;20051;-82
2023/02/03 01:49:03;;;;;;;14.30;5.55;;;;;;;-6.03;51.20;100031.22;4774795;30;20105;-81
2023/02/03 01:51:29;;;;;;;8.53;5.03;;;;;;;-6.09;51.27;100031.22;4771052;30;20154;-84
2023/02/03 01:53:56;;;;;;;11.25;4.75;;;;;;;-6.10;51.31;100040.75;4772736;30;20338;-84
2023/02/03 01:56:23;;;;;;;15.77;5.97;;;;;;;-6.09;51.60;100052.03;4771449;30;20074;-82
2023/02/03 01:58:50;;;;;;;11.13;5.15;;;;;;;-6.18;51.21;100053.78;4771904;30;20058;-86
2023/02/03 02:01:16;;;;;;;11.25;5.10;;;;;;;-6.37;51.56;100052.91;4787201;30;20063;-84
2023/02/03 02:03:48;;;;;;;12.07;5.38;;;;;;;-6.46;51.37;100057.28;4773075;30;20078;-83
2023/02/03 02:06:14;;;;;;;12.20;4.82;;;;;;;-6.59;51.71;100043.38;4803343;29;20130;-84
2023/02/03 02:08:45;;;;;;;13.73;5.93;;;;;;;-6.81;52.14;100050.28;4789113;30;20055;-84
2023/02/03 02:11:10;;;;;;;11.63;4.50;;;;;;;-6.80;52.44;100051.19;4759095;30;20043;-84
2023/02/03 02:13:41;;;;;;;12.00;5.07;;;;;;;-6.79;51.95;100035.56;4789095;30;20093;-84
2023/02/03 02:16:16;;;;;;;10.10;4.85;;;;;;;-6.74;52.26;100041.63;4774645;30;20059;-83
2023/02/03 02:19:09;;;;;;;9.65;4.43;;;;;;;-6.66;51.90;100036.44;4788758;30;20058;-84
2023/02/03 02:21:54;;;;;;;11.68;5.00;;;;;;;-6.66;51.73;100034.69;4788414;30;20051;-82
2023/02/03 02:24:25;;;;;;;11.20;4.47;;;;;;;-6.66;51.77;100045.09;4789631;30;20047;-84
2023/02/03 02:26:54;;;;;;;9.18;4.93;;;;;;;-6.62;51.82;100033.88;4759162;30;20543;-84
2023/02/03 02:29:27;;;;;;;13.48;4.93;;;;;;;-6.53;51.70;100050.34;4788640;29;20043;-84
2023/02/03 02:32:15;;;;;;;10.80;4.68;;;;;;;-6.61;51.49;100027.78;4803875;29;20051;-84
2023/02/03 02:34:56;;;;;;;11.90;4.97;;;;;;;-6.48;51.52;100048.59;4788695;30;20471;-85
2023/02/03 02:37:32;;;;;;;10.90;5.20;;;;;;;-6.47;51.37;100045.13;4773516;30;20055;-84
2023/02/03 02:40:16;;;;;;;12.35;4.75;;;;;;;-6.44;51.25;100047.72;4788616;30;20113;-84
2023/02/03 02:42:56;;;;;;;15.40;4.88;;;;;;;-6.44;50.84;100037.31;4773426;30;20051;-84
2023/02/03 02:45:31;;;;;;;12.68;5.40;;;;;;;-6.46;51.14;100036.47;4788466;30;20062;-85
2023/02/03 02:48:29;;;;;;;14.07;4.90;;;;;;;-6.46;50.95;100036.47;4773923;30;20047;-84
2023/02/03 02:50:58;;;;;;;12.07;4.55;;;;;;;-6.51;51.11;100032.97;4785400;30;20067;-84
2023/02/03 02:53:31;;;;;;;9.03;4.80;;;;;;;-6.50;51.17;100039.94;4773526;30;20050;-83
2023/02/03 02:56:02;;;;;;;10.52;5.07;;;;;;;-6.54;51.17;100040.78;4788763;30;20498;-83
2023/02/03 02:58:29;;;;;;;10.82;4.68;;;;;;;-6.57;51.10;100044.25;4788156;30;20058;-84
2023/02/03 03:00:55;;;;;;;12.75;4.68;;;;;;;-6.62;50.84;100031.28;4758356;30;20047;-83
2023/02/03 03:03:22;;;;;;;7.45;4.50;;;;;;;-6.62;51.10;100049.47;4788002;29;20519;-83
2023/02/03 03:05:54;;;;;;;9.60;4.68;;;;;;;-6.61;50.96;100042.53;4788459;30;20119;-83
2023/02/03 03:08:54;;;;;;;10.48;4.95;;;;;;;-6.67;51.20;100032.97;4773471;30;20058;-84
2023/02/03 03:11:21;;;;;;;11.40;5.50;;;;;;;-6.65;50.95;100052.06;4788103;30;20047;-85
2023/02/03 03:13:51;;;;;;;14.80;4.50;;;;;;;-6.77;51.05;100062.47;4773652;30;20062;-85
2023/02/03 03:16:22;;;;;;;9.73;5.00;;;;;;;-6.84;51.10;100063.31;4805143;29;20372;-84
2023/02/03 03:18:55;;;;;;;10.05;4.75;;;;;;;-6.97;51.29;100048.53;4802836;29;20055;-84
2023/02/03 03:21:29;;;;;;;8.50;4.18;;;;;;;-7.05;51.40;100060.66;4789109;29;20522;-85
2023/02/03 03:23:58;;;;;;;10.68;4.80;;;;;;;-7.04;51.65;100062.38;4788284;30;20134;-84
2023/02/03 03:26:48;;;;;;;9.95;4.45;;;;;;;-7.08;51.70;100064.09;4788108;30;20054;-81
2023/02/03 03:29:19;;;;;;;12.07;4.97;;;;;;;-7.10;51.74;100058.03;4805377;29;20059;-87
2023/02/03 03:31:45;;;;;;;12.85;4.78;;;;;;;-7.12;51.65;100060.63;4804963;29;20401;-83
2023/02/03 03:34:13;;;;;;;8.88;4.05;;;;;;;-7.13;51.86;100058.91;4790178;29;20511;-85
2023/02/03 03:36:53;;;;;;;11.02;5.65;;;;;;;-7.16;51.95;100058.88;4773204;30;20051;-84
2023/02/03 03:39:31;;;;;;;10.98;4.60;;;;;;;-7.13;51.84;100069.28;4774241;30;20104;-85
2023/02/03 03:42:11;;;;;;;7.30;4.03;;;;;;;-7.16;51.70;100060.63;4787845;30;20392;-86
2023/02/03 03:45:04;;;;;;;15.50;4.53;;;;;;;-7.12;52.09;100070.16;4773518;30;20055;-84
2023/02/03 03:47:33;;;;;;;13.02;4.50;;;;;;;-7.11;51.76;100062.38;4782189;30;20051;-86
2023/02/03 03:50:02;;;;;;;8.80;4.65;;;;;;;-7.13;51.76;100064.09;4776653;30;20059;-88
2023/02/03 03:52:34;;;;;;;10.98;5.20;;;;;;;-7.11;52.05;100062.38;4792670;29;20055;-84
2023/02/03 03:55:02;;;;;;;9.90;4.75;;;;;;;-7.09;52.08;100067.56;4791270;29;20430;-80
2023/02/03 03:57:35;;;;;;;17.27;4.75;;;;;;;-7.07;51.90;100067.56;4773891;30;20047;-85
2023/02/03 04:00:05;;;;;;;8.15;4.70;;;;;;;-7.07;51.89;100072.75;4787684;30;20146;-83
2023/02/03 04:02:41;;;;;;;12.50;5.03;;;;;;;-7.01;51.76;100078.84;4788380;30;20047;-82
2023/02/03 04:05:09;;;;;;;10.95;4.78;;;;;;;-6.98;51.70;100078.00;4789333;30;20432;-87
2023/02/03 04:07:43;;;;;;;8.50;4.38;;;;;;;-7.00;51.46;100074.50;4789247;30;20081;-84
2023/02/03 04:10:31;;;;;;;11.93;5.07;;;;;;;-6.92;51.77;100078.00;4789568;30;20070;-81
2023/02/03 04:12:58;;;;;;;11.60;4.93;;;;;;;-6.91;51.71;100074.56;4772555;30;20158;-86
2023/02/03 04:15:24;;;;;;;8.93;4.53;;;;;;;-6.85;51.60;100069.34;4787501;30;20050;-83
2023/02/03 04:17:50;;;;;;;11.75;5.03;;;;;;;-6.82;51.54;100079.75;4771264;30;20533;-81
2023/02/03 04:20:16;;;;;;;9.43;4.60;;;;;;;-6.82;51.45;100079.75;4801896;29;20133;-80
2023/02/03 04:22:42;;;;;;;12.80;5.20;;;;;;;-6.85;51.61;100090.13;4786947;30;20522;-79
2023/02/03 04:25:08;;;;;;;13.75;6.10;;;;;;;-6.79;51.47;100084.97;4772661;30;20047;-82
2023/02/03 04:27:35;;;;;;;14.38;5.90;;;;;;;-6.71;51.61;100087.56;4787891;30;20415;-83
2023/02/03 04:30:00;;;;;;;13.88;5.43;;;;;;;-6.66;51.83;100086.69;4787676;29;20058;-87
2023/02/03 04:32:29;;;;;;;11.30;4.80;;;;;;;-6.61;51.40;100074.59;4786966;30;20075;-83
2023/02/03 04:34:56;;;;;;;12.20;5.28;;;;;;;-6.54;51.35;100077.19;4787848;29;20119;-81
2023/02/03 04:37:25;;;;;;;15.82;5.93;;;;;;;-6.51;51.41;100074.59;4786465;30;20074;-79
2023/02/03 04:39:52;;;;;;;13.02;6.03;;;;;;;-6.40;51.33;100085.88;4772440;30;20071;-76
2023/02/03 04:42:18;;;;;;;13.13;5.70;;;;;;;-6.34;51.17;100082.41;4801734;29;20112;-83
2023/02/03 04:44:44;;;;;;;11.93;5.90;;;;;;;-6.31;51.37;100088.50;4787782;29;20059;-81
2023/02/03 04:47:09;;;;;;;10.65;5.72;;;;;;;-6.28;51.30;100082.41;4771917;30;20047;-81
2023/02/03 04:49:35;;;;;;;21.20;6.35;;;;;;;-6.31;51.07;100085.88;4801744;29;20047;-81
2023/02/03 04:52:01;;;;;;;15.02;7.20;;;;;;;-6.27;51.19;100085.00;4786709;30;20519;-78
2023/02/03 04:54:27;;;;;;;13.00;6.60;;;;;;;-6.21;51.24;100085.00;4786698;30;20116;-82
2023/02/03 04:56:52;;;;;;;11.43;5.70;;;;;;;-6.18;51.09;100084.13;4786465;30;20414;-83
2023/02/03 04:59:18;;;;;;;11.40;5.47;;;;;;;-6.10;51.08;100082.38;4786770;30;20696;-84
2023/02/03 05:01:44;;;;;;;14.75;5.97;;;;;;;-5.97;50.90;100091.06;4801570;29;20059;-78
2023/02/03 05:04:10;;;;;;;12.30;6.38;;;;;;;-5.90;50.78;100085.81;4786957;30;20427;-83
2023/02/03 05:06:36;;;;;;;17.38;7.03;;;;;;;-5.90;50.77;100091.03;4771643;30;20055;-85
2023/02/03 05:09:02;;;;;;;17.88;6.45;;;;;;;-5.91;50.54;100084.06;4787078;30;20043;-83
2023/02/03 05:11:28;;;;;;;12.32;6.13;;;;;;;-6.01;50.70;100058.13;4788225;29;20534;-81
2023/02/03 05:13:53;;;;;;;17.42;6.10;;;;;;;-5.92;50.71;100068.50;4791419;29;20047;-88
2023/02/03 05:16:19;;;;;;;11.05;5.97;;;;;;;-5.84;50.62;100071.91;4789274;30;20412;-85
2023/02/03 05:18:45;;;;;;;10.95;6.22;;;;;;;-5.70;50.37;100077.09;4789972;29;20515;-83
2023/02/03 05:21:11;;;;;;;18.52;7.88;;;;;;;-5.62;50.40;100072.72;4803860;29;20051;-84
2023/02/03 05:23:37;;;;;;;17.40;8.02;;;;;;;-5.50;50.14;100075.28;4786301;30;20052;-81
2023/02/03 05:26:02;;;;;;;17.80;8.68;;;;;;;-5.44;50.29;100064.00;4802693;29;20415;-80
2023/02/03 05:28:28;;;;;;;16.10;8.82;;;;;;;-5.28;50.26;100081.28;4789629;29;20055;-84
2023/02/03 05:30:57;;;;;;;21.52;10.30;;;;;;;-5.23;49.81;100071.75;4774392;30;20043;-81
2023/02/03 05:33:23;;;;;;;37.63;11.32;;;;;;;-5.30;50.19;100080.44;4759731;30;20051;-79
2023/02/03 05:35:49;;;;;;;24.58;11.43;;;;;;;-5.43;49.88;100076.16;4774431;30;20050;-79
2023/02/03 05:38:15;;;;;;;29.00;13.57;;;;;;;-5.34;50.13;100078.72;4774781;30;20104;-80
2023/02/03 05:43:26;;;;;;;29.00;12.00;;;;;;;-5.29;49.42;100078.72;4789519;30;20051;-84
2023/02/03 05:45:52;;;;;;;36.85;12.95;;;;;;;-5.22;49.98;100081.28;4789178;29;20058;-82
2023/02/03 05:48:18;;;;;;;29.73;12.82;;;;;;;-5.14;49.96;100079.50;4788809;30;20047;-81
2023/02/03 05:50:44;;;;;;;34.05;13.50;;;;;;;-4.98;49.51;100085.50;4759431;30;20047;-84
2023/02/03 05:53:10;;;;;;;33.45;13.18;;;;;;;-4.90;48.91;100073.28;4789019;30;20050;-79
2023/02/03 05:55:36;;;;;;;36.72;16.50;;;;;;;-4.88;49.04;100075.91;4788857;30;20467;-79
2023/02/03 05:58:03;;;;;;;28.08;13.07;;;;;;;-4.86;48.96;100074.13;4789223;30;20054;-79
2023/02/03 06:00:29;;;;;;;26.75;13.48;;;;;;;-4.83;49.20;100066.28;4759217;30;20112;-81
2023/02/03 06:02:58;;;;;;;25.00;12.43;;;;;;;-4.80;48.79;100063.69;4788511;30;20522;-86
2023/02/03 06:05:25;;;;;;;22.30;11.40;;;;;;;-4.75;48.57;100074.94;4789185;30;20150;-79
2023/02/03 06:07:51;;;;;;;19.45;10.25;;;;;;;-4.66;48.44;100071.41;4790303;29;20053;-82
2023/02/03 06:10:17;;;;;;;27.20;11.27;;;;;;;-4.59;48.37;100067.00;4789482;30;20078;-80
2023/02/03 06:12:43;;;;;;;23.38;9.75;;;;;;;-4.56;48.20;100067.00;4788702;29;20066;-81
2023/02/03 06:15:10;;;;;;;21.73;10.20;;;;;;;-4.56;48.10;100061.78;4790635;29;20421;-81
2023/02/03 06:17:37;;;;;;;29.08;10.13;;;;;;;-4.43;48.30;100060.81;4789616;30;20082;-80
2023/02/03 06:20:07;;;;;;;24.05;9.45;;;;;;;-4.45;47.82;100059.94;4759707;30;20152;-81
2023/02/03 06:22:34;;;;;;;20.02;9.50;;;;;;;-4.29;47.40;100069.38;4803793;29;20051;-81
2023/02/03 06:25:00;;;;;;;15.77;7.85;;;;;;;-4.18;47.17;100070.16;4788776;30;20194;-80
2023/02/03 06:27:26;;;;;;;14.05;7.55;;;;;;;-4.13;47.38;100071.88;4789708;30;20126;-81
2023/02/03 06:29:52;;;;;;;22.88;8.07;;;;;;;-4.13;47.25;100070.13;4789769;29;20067;-87
2023/02/03 06:32:18;;;;;;;19.48;7.55;;;;;;;-4.05;46.73;100067.47;4803429;29;20083;-82
2023/02/03 06:34:44;;;;;;;30.75;7.72;;;;;;;-4.06;46.52;100068.31;4788544;30;20085;-83
2023/02/03 06:37:10;;;;;;;16.35;7.70;;;;;;;-4.09;46.41;100068.38;4784818;29;20051;-82
2023/02/03 06:39:35;;;;;;;24.40;7.97;;;;;;;-3.96;46.16;100070.81;4785981;30;20051;-84
2023/02/03 06:42:01;;;;;;;14.75;7.38;;;;;;;-3.88;46.34;100062.91;4744905;30;20086;-85
2023/02/03 06:44:27;;;;;;;12.20;7.50;;;;;;;-3.71;46.20;100060.16;4763908;30;20524;-81
2023/02/03 06:46:55;;;;;;;16.13;7.57;;;;;;;-3.63;45.90;100060.06;4776383;30;20055;-81
2023/02/03 06:49:21;;;;;;;19.65;7.47;;;;;;;-3.60;45.40;100060.03;4773720;30;20110;-81
2023/02/03 06:51:47;;;;;;;16.98;6.90;;;;;;;-3.53;44.84;100053.88;4771033;30;20052;-84
2023/02/03 06:54:13;;;;;;;14.95;7.47;;;;;;;-3.42;44.68;100058.06;4787984;30;20050;-83
2023/02/03 06:56:39;;;;;;;27.27;9.07;;;;;;;-3.49;44.79;100059.03;4772905;30;20060;-82
2023/02/03 06:59:04;;;;;;;18.65;8.63;;;;;;;-3.43;44.45;100053.72;4771232;30;20052;-80
2023/02/03 07:01:30;;;;;;;20.17;8.35;;;;;;;-3.41;44.44;100045.88;4770907;30;20116;-83
2023/02/03 07:03:57;;;;;;;17.13;8.88;;;;;;;-3.27;44.32;100051.81;4755866;30;20135;-84
2023/02/03 07:06:27;;;;;;;26.63;11.23;;;;;;;-3.18;44.40;100049.06;4786015;30;20493;-84
2023/02/03 07:08:55;;;;;;;22.73;10.38;;;;;;;-3.05;44.24;100051.50;4771726;30;20393;-88
2023/02/03 07:11:21;;;;;;;30.83;13.00;;;;;;;-2.94;43.88;100052.22;4743906;30;20048;-84
2023/02/03 07:13:47;;;;;;;26.45;13.07;;;;;;;-2.81;43.60;100043.31;4758030;30;20094;-84
2023/02/03 07:16:13;;;;;;;31.60;14.15;;;;;;;-2.67;43.10;100053.59;4771754;30;20098;-87
2023/02/03 07:18:39;;;;;;;28.27;14.60;;;;;;;-2.61;43.31;100042.16;4770494;30;20047;-85
2023/02/03 07:21:06;;;;;;;30.33;15.25;;;;;;;-2.50;43.55;100043.72;4771284;30;20044;-84
2023/02/03 07:23:32;;;;;;;24.77;13.23;;;;;;;-2.48;42.67;100038.47;4785239;30;20055;-84
2023/02/03 07:25:59;;;;;;;27.58;13.23;;;;;;;-2.39;42.97;100038.31;4771927;30;20365;-83
2023/02/03 07:28:25;;;;;;;34.63;13.65;;;;;;;-2.25;43.01;100033.72;4772608;30;20112;-86
2023/02/03 07:30:51;;;;;;;25.02;13.65;;;;;;;-2.13;42.67;100035.25;4741079;30;20059;-90
2023/02/03 07:33:17;;;;;;;22.20;11.85;;;;;;;-2.02;42.55;100027.22;4770246;30;20047;-86
2023/02/03 07:35:42;;;;;;;24.60;12.60;;;;;;;-1.98;42.79;100018.41;4769517;30;20051;-81
2023/02/03 07:38:09;;;;;;;22.13;11.07;;;;;;;-1.89;41.51;100018.22;4770299;30;20051;-87
2023/02/03 07:40:35;;;;;;;24.92;13.63;;;;;;;-1.71;42.08;100022.25;4739728;30;20052;-83
2023/02/03 07:43:01;;;;;;;25.48;11.05;;;;;;;-1.74;40.66;100025.81;4771237;30;20061;-84
2023/02/03 07:45:26;;;;;;;26.90;13.70;;;;;;;-1.80;40.67;100018.06;4754542;30;20048;-82
2023/02/03 07:47:52;;;;;;;24.85;14.35;;;;;;;-1.82;41.18;100017.22;4768368;30;20491;-81
2023/02/03 07:50:18;;;;;;;32.92;15.40;;;;;;;-1.54;41.23;100020.19;4771209;30;20083;-87
2023/02/03 07:52:44;;;;;;;36.22;17.52;;;;;;;-1.73;40.47;100008.31;4740501;30;20058;-82
2023/02/03 07:55:10;;;;;;;37.38;17.20;;;;;;;-1.65;41.46;100026.53;4784470;30;20491;-84
2023/02/03 07:57:36;;;;;;;28.35;16.00;;;;;;;-1.56;43.55;100016.72;4784111;30;20056;-82
2023/02/03 08:00:03;;;;;;;26.63;13.50;;;;;;;-1.36;41.30;100013.69;4769034;30;20059;-82
2023/02/03 08:02:37;;;;;;;29.30;16.38;;;;;;;-1.44;41.12;100004.25;4769422;30;20130;-80
2023/02/03 08:05:03;;;;;;;32.15;16.92;;;;;;;-1.30;41.30;100013.56;4754296;30;20208;-81
2023/02/03 08:07:29;;;;;;;36.30;14.45;;;;;;;-1.17;41.51;100003.66;4755261;30;20060;-80
2023/02/03 08:09:55;;;;;;;34.58;16.55;;;;;;;-0.98;41.16;100005.00;4783936;30;20055;-80
2023/02/03 08:12:21;;;;;;;26.85;15.77;;;;;;;-0.82;40.24;99999.41;4787178;30;20067;-80
2023/02/03 08:14:47;;;;;;;32.30;14.23;;;;;;;-0.78;40.19;100001.94;4801844;29;20133;-78
2023/02/03 08:17:13;;;;;;;23.42;13.80;;;;;;;-0.74;39.40;99993.06;4801676;29;20516;-78
2023/02/03 08:19:39;;;;;;;24.77;12.70;;;;;;;-0.67;39.35;99998.19;4787878;29;20192;-82
2023/02/03 08:22:05;;;;;;;27.42;12.77;;;;;;;-0.59;39.41;99988.38;4786036;30;20051;-80
2023/02/03 08:24:31;;;;;;;26.20;12.10;;;;;;;-0.55;38.88;99993.50;4787021;30;20108;-84
2023/02/03 08:26:57;;;;;;;30.85;12.55;;;;;;;-0.39;38.57;100004.50;4772505;30;20043;-85
2023/02/03 08:29:22;;;;;;;33.47;11.68;;;;;;;-0.37;37.88;100005.31;4757062;30;20124;-85
2023/02/03 08:31:48;;;;;;;21.90;11.48;;;;;;;-0.28;38.05;100006.84;4772037;30;20051;-85
2023/02/03 08:34:14;;;;;;;24.90;11.95;;;;;;;-0.05;38.18;100006.25;4766130;30;20067;-86
2023/02/03 08:36:40;;;;;;;27.23;13.45;;;;;;;0.07;37.48;100008.56;4786824;30;20047;-86
2023/02/03 08:39:06;;;;;;;27.35;13.00;;;;;;;0.05;37.31;100002.50;4765134;30;20056;-89
2023/02/03 08:41:33;;;;;;;36.40;14.43;;;;;;;-0.36;36.95;100009.66;4788806;29;20043;-86
2023/02/03 08:44:00;;;;;;;34.13;15.32;;;;;;;-1.13;37.31;99996.59;4787118;29;20047;-82
2023/02/03 08:46:26;;;;;;;31.77;14.48;;;;;;;-1.43;38.07;99996.34;4786033;30;20055;-87
2023/02/03 08:48:55;;;;;;;26.65;14.23;;;;;;;-1.29;38.18;99993.44;4764972;30;20054;-87
2023/02/03 08:51:21;;;;;;;33.78;16.25;;;;;;;-1.34;38.49;99993.56;4784538;30;20051;-84
2023/02/03 08:53:47;;;;;;;28.70;14.73;;;;;;;-1.58;38.64;99988.81;4772086;30;20086;-82
2023/02/03 08:56:13;;;;;;;31.52;16.02;;;;;;;-1.58;38.91;99983.56;4766623;30;20044;-84
2023/02/03 08:58:39;;;;;;;32.95;15.40;;;;;;;-1.28;38.87;99988.19;4796067;30;20155;-84
2023/02/03 09:01:10;;;;;;;27.85;13.43;;;;;;;-1.40;38.72;99984.94;4789668;30;20071;-85
2023/02/03 09:03:37;;;;;;;26.42;12.38;;;;;;;-1.55;38.34;99978.25;4791289;30;20053;-89
2023/02/03 09:06:08;;;;;;;46.28;14.13;;;;;;;-1.45;38.06;99982.44;4790319;30;20054;-85
2023/02/03 09:08:33;;;;;;;25.90;12.52;;;;;;;-1.43;38.76;99985.84;4774803;30;20050;-83
2023/02/03 09:10:59;;;;;;;22.77;11.45;;;;;;;-1.27;38.30;99986.44;4790274;30;20047;-85
2023/02/03 09:13:25;;;;;;;29.35;10.77;;;;;;;-1.21;38.74;99981.03;4775088;30;20143;-85
2023/02/03 09:15:52;;;;;;;31.33;11.50;;;;;;;-1.19;38.44;99976.63;4805172;29;20083;-84
2023/02/03 09:18:18;;;;;;;29.27;10.82;;;;;;;-0.95;38.53;99977.81;4792119;30;20059;-83
2023/02/03 09:20:43;;;;;;;27.00;10.13;;;;;;;-0.70;38.00;99966.75;4791077;30;20504;-84
2023/02/03 09:23:09;;;;;;;21.33;10.02;;;;;;;-0.74;37.89;99972.06;4774859;30;20055;-84
2023/02/03 09:25:35;;;;;;;18.88;8.80;;;;;;;-0.76;38.23;99976.50;4774295;30;20484;-85
2023/02/03 09:28:01;;;;;;;22.70;9.63;;;;;;;-0.87;38.72;99965.38;4784766;30;20051;-86
2023/02/03 09:30:27;;;;;;;23.90;8.57;;;;;;;-0.63;38.34;99973.59;4805964;29;20055;-84
2023/02/03 09:32:55;;;;;;;18.23;8.45;;;;;;;-0.82;38.25;99975.78;4791287;30;20058;-84
2023/02/03 09:35:21;;;;;;;20.70;8.85;;;;;;;-1.05;38.39;99976.31;4791123;30;20051;-85
2023/02/03 09:37:47;;;;;;;20.85;8.65;;;;;;;-0.99;38.91;99970.91;4806918;29;20102;-85
2023/02/03 09:40:21;;;;;;;22.52;9.63;;;;;;;-0.88;39.37;99968.91;4791265;30;20043;-83
2023/02/03 09:43:21;;;;;;;19.67;8.57;;;;;;;-0.89;39.67;99972.44;4789834;30;20047;-86
2023/02/03 09:45:47;;;;;;;17.67;9.20;;;;;;;-0.77;38.81;99958.16;4790435;30;20051;-84
2023/02/03 09:48:20;;;;;;;24.42;9.80;;;;;;;-0.67;39.45;99966.69;4775625;30;20043;-85
2023/02/03 09:50:47;;;;;;;21.95;8.65;;;;;;;-0.65;39.43;99964.88;4791091;29;20093;-85
2023/02/03 09:53:44;;;;;;;23.88;9.73;;;;;;;-0.60;39.37;99965.63;4791032;29;20091;-84
2023/02/03 09:56:30;;;;;;;21.38;8.38;;;;;;;-0.87;39.28;99964.53;4784817;30;20065;-84
2023/02/03 09:58:56;;;;;;;24.13;10.13;;;;;;;-0.77;39.70;99969.53;4789768;30;20097;-88
2023/02/03 10:01:27;;;;;;;20.33;9.18;;;;;;;-1.00;39.33;99963.94;4789703;29;20392;-87
2023/02/03 10:04:04;;;;;;;15.98;9.30;;;;;;;-0.55;39.58;99961.13;4789459;30;20058;-86
2023/02/03 10:06:42;;;;;;;28.13;10.18;;;;;;;-0.37;39.13;99971.19;4776342;30;20050;-85
2023/02/03 10:09:07;;;;;;;23.50;10.38;;;;;;;-0.37;38.13;99971.19;4790656;30;20126;-85
2023/02/03 10:11:48;;;;;;;22.55;9.98;;;;;;;-0.17;37.33;99973.28;4773305;30;20150;-84
2023/02/03 10:14:23;;;;;;;19.65;8.85;;;;;;;0.07;36.92;99966.50;4789082;30;20086;-85
2023/02/03 10:17:04;;;;;;;21.30;8.48;;;;;;;0.10;36.67;99978.69;4774078;30;20048;-83
2023/02/03 10:19:43;;;;;;;15.55;6.80;;;;;;;-0.17;35.99;99973.28;4789193;30;20059;-84
2023/02/03 10:22:15;;;;;;;14.35;6.43;;;;;;;-0.25;36.30;99965.59;4773964;30;20108;-83
2023/02/03 10:24:55;;;;;;;23.95;7.32;;;;;;;-0.25;36.85;99970.00;4790366;30;20113;-85
2023/02/03 10:27:23;;;;;;;18.65;6.28;;;;;;;-0.37;37.24;99970.31;4773973;30;20051;-86
2023/02/03 10:30:02;;;;;;;18.70;6.53;;;;;;;-0.67;36.69;99974.56;4788694;30;20075;-86
2023/02/03 10:32:29;;;;;;;21.20;7.82;;;;;;;-0.71;37.04;99980.75;4788975;30;20153;-82
2023/02/03 10:34:55;;;;;;;21.13;7.93;;;;;;;-0.85;37.01;99978.47;4773475;30;20051;-83
2023/02/03 10:37:46;;;;;;;25.58;7.60;;;;;;;-0.76;37.18;99984.34;4758570;30;20142;-88
2023/02/03 10:40:14;;;;;;;23.83;8.60;;;;;;;-0.59;37.25;99970.00;4788988;30;20047;-88
2023/02/03 10:45:28;;;;;;;29.80;10.40;;;;;;;-1.11;37.45;99976.44;4774568;30;20453;-88
2023/02/03 10:47:55;;;;;;;26.10;10.70;;;;;;;-0.74;38.31;99972.06;4789415;30;20047;-86
2023/02/03 10:50:32;;;;;;;25.75;10.98;;;;;;;-0.65;37.71;99973.59;4759537;30;20051;-83
2023/02/03 10:53:36;;;;;;;22.48;8.63;;;;;;;-0.56;37.73;99983.03;4776151;30;20138;-84
2023/02/03 10:56:10;;;;;;;29.80;8.55;;;;;;;-0.57;37.38;99978.66;4806651;29;20039;-87
2023/02/03 10:58:38;;;;;;;27.40;9.25;;;;;;;-0.43;37.14;99984.44;4794162;30;20062;-83
2023/02/03 11:01:10;;;;;;;19.33;8.50;;;;;;;-0.05;36.66;99987.84;4807237;29;20051;-85
2023/02/03 11:03:37;;;;;;;17.08;7.43;;;;;;;0.03;36.59;99990.28;4804632;29;20066;-87
2023/02/03 11:06:15;;;;;;;19.92;8.60;;;;;;;-0.07;36.91;99989.69;4809001;29;20051;-84
2023/02/03 11:08:47;;;;;;;19.17;7.35;;;;;;;-0.23;36.97;99988.34;4788503;30;20192;-86
2023/02/03 11:11:31;;;;;;;13.50;6.90;;;;;;;0.03;37.26;99996.41;4787727;30;20043;-84
2023/02/03 11:14:03;;;;;;;16.63;7.28;;;;;;;0.14;36.10;99996.97;4759682;30;20496;-84
2023/02/03 11:16:31;;;;;;;21.27;7.40;;;;;;;0.08;36.48;99991.91;4788241;30;20127;-83
2023/02/03 11:19:03;;;;;;;19.98;7.88;;;;;;;-0.03;36.14;99991.31;4803323;29;20055;-84
2023/02/03 11:21:41;;;;;;;20.67;6.88;;;;;;;-0.10;36.65;100001.13;4773728;30;20074;-83
2023/02/03 11:24:21;;;;;;;28.15;7.28;;;;;;;-0.43;35.79;99987.06;4789626;29;20051;-81
2023/02/03 11:27:06;;;;;;;42.75;7.18;;;;;;;-0.67;36.23;99996.44;4773425;30;20078;-85
2023/02/03 11:29:35;;;;;;;22.83;6.55;;;;;;;-0.77;36.95;99997.53;4787626;29;20051;-82
2023/02/03 11:32:05;;;;;;;;;;;;;;;-0.81;37.33;99994.13;4788179;30;20047;-83